createdAt,value
2022-09-15T00:00:31.687Z,0.00
2022-09-15T00:01:31.778Z,0.00
2022-09-15T00:02:31.868Z,0.00
2022-09-15T00:03:31.656Z,0.00
2022-09-15T00:04:31.624Z,0.00
2022-09-15T00:05:31.651Z,0.00
2022-09-15T00:06:31.708Z,0.00
2022-09-15T00:07:31.664Z,0.00
2022-09-15T00:08:31.605Z,0.00
2022-09-15T00:09:31.672Z,0.00
2022-09-15T00:10:31.570Z,0.00
2022-09-15T00:11:31.666Z,0.00
2022-09-15T00:12:31.551Z,0.00
2022-09-15T00:13:31.530Z,0.00
2022-09-15T00:14:31.585Z,0.00
2022-09-15T00:15:31.573Z,0.00
2022-09-15T00:16:31.651Z,0.00
2022-09-15T00:17:31.545Z,0.00
2022-09-15T00:18:31.510Z,0.00
2022-09-15T00:19:31.483Z,0.00
2022-09-15T00:20:31.495Z,0.00
2022-09-15T00:21:31.516Z,0.00
2022-09-15T00:22:31.510Z,0.00
2022-09-15T00:23:31.431Z,0.00
2022-09-15T00:24:31.467Z,0.00
2022-09-15T00:25:31.457Z,0.00
2022-09-15T00:26:31.406Z,0.00
2022-09-15T00:27:31.373Z,0.00
2022-09-15T00:28:31.467Z,0.00
2022-09-15T00:29:31.372Z,0.00
2022-09-15T00:30:31.400Z,0.00
2022-09-15T00:31:31.404Z,0.00
2022-09-15T00:32:31.324Z,0.00
2022-09-15T00:33:31.377Z,0.00
2022-09-15T00:34:31.297Z,0.00
2022-09-15T00:35:31.313Z,0.00
2022-09-15T00:36:31.348Z,0.00
2022-09-15T00:37:31.266Z,0.00
2022-09-15T00:38:31.249Z,0.00
2022-09-15T00:39:31.265Z,0.00
2022-09-15T00:40:31.346Z,0.00
2022-09-15T00:41:31.288Z,0.00
2022-09-15T00:42:31.238Z,0.00
2022-09-15T00:43:31.262Z,0.00
2022-09-15T00:44:31.194Z,0.00
2022-09-15T00:45:31.269Z,0.00
2022-09-15T00:46:31.188Z,0.00
2022-09-15T00:47:31.206Z,0.00
2022-09-15T00:48:31.163Z,0.00
2022-09-15T00:49:31.154Z,0.00
2022-09-15T00:50:31.178Z,0.00
2022-09-15T00:51:31.135Z,0.00
2022-09-15T00:52:31.135Z,0.00
2022-09-15T00:53:31.113Z,0.00
2022-09-15T00:54:31.133Z,0.00
2022-09-15T00:55:31.106Z,0.00
2022-09-15T00:56:31.127Z,0.00
2022-09-15T00:57:31.130Z,0.00
2022-09-15T00:58:31.053Z,0.00
2022-09-15T00:59:31.043Z,0.00
2022-09-15T01:00:31.040Z,0.00
2022-09-15T01:01:31.117Z,0.00
2022-09-15T01:02:31.066Z,0.00
2022-09-15T01:03:31.043Z,0.00
2022-09-15T01:04:31.004Z,0.00
2022-09-15T01:05:30.979Z,0.00
2022-09-15T01:06:31.053Z,0.00
2022-09-15T01:07:30.992Z,0.00
2022-09-15T01:08:30.952Z,0.00
2022-09-15T01:09:31.006Z,0.00
2022-09-15T01:10:30.951Z,0.00
2022-09-15T01:11:30.930Z,0.00
2022-09-15T01:12:30.955Z,0.00
2022-09-15T01:13:30.914Z,0.00
2022-09-15T01:14:30.915Z,0.00
2022-09-15T01:15:30.940Z,0.00
2022-09-15T01:16:30.896Z,0.00
2022-09-15T01:17:30.859Z,0.00
2022-09-15T01:18:30.850Z,0.00
2022-09-15T01:19:30.873Z,0.00
2022-09-15T01:20:30.865Z,0.00
2022-09-15T01:21:30.859Z,0.00
2022-09-15T01:22:30.839Z,0.00
2022-09-15T01:23:30.816Z,0.00
2022-09-15T01:24:30.800Z,0.00
2022-09-15T01:25:30.799Z,0.00
2022-09-15T01:26:30.754Z,0.00
2022-09-15T01:27:42.105Z,0.00
2022-09-15T01:28:30.748Z,0.00
2022-09-15T01:29:30.752Z,0.00
2022-09-15T01:30:30.756Z,0.00
2022-09-15T01:31:30.812Z,0.00
2022-09-15T01:32:30.736Z,0.00
2022-09-15T01:33:30.768Z,0.00
2022-09-15T01:34:30.691Z,0.00
2022-09-15T01:35:30.685Z,0.00
2022-09-15T01:36:30.698Z,0.00
2022-09-15T01:37:30.675Z,0.00
2022-09-15T01:38:30.651Z,0.00
2022-09-15T01:39:30.666Z,0.00
2022-09-15T01:40:30.698Z,0.00
2022-09-15T01:41:30.676Z,0.00
2022-09-15T01:42:30.616Z,0.00
2022-09-15T01:43:30.617Z,0.00
2022-09-15T01:44:30.689Z,0.00
2022-09-15T01:45:30.624Z,0.00
2022-09-15T01:46:30.603Z,0.00
2022-09-15T01:47:30.649Z,0.00
2022-09-15T01:48:30.547Z,0.00
2022-09-15T01:49:30.542Z,0.00
2022-09-15T01:50:30.555Z,0.00
2022-09-15T01:51:30.545Z,0.00
2022-09-15T01:52:30.509Z,0.00
2022-09-15T01:53:30.535Z,0.00
2022-09-15T01:54:30.519Z,0.00
2022-09-15T01:55:30.498Z,0.00
2022-09-15T01:56:30.507Z,0.00
2022-09-15T01:57:30.492Z,0.00
2022-09-15T01:58:30.439Z,0.00
2022-09-15T01:59:30.465Z,0.00
2022-09-15T02:00:30.426Z,0.00
2022-09-15T02:01:30.476Z,0.00
2022-09-15T02:02:30.430Z,0.00
2022-09-15T02:03:30.433Z,0.00
2022-09-15T02:04:30.453Z,0.00
2022-09-15T02:05:30.379Z,0.00
2022-09-15T02:06:30.359Z,0.00
2022-09-15T02:07:30.369Z,0.00
2022-09-15T02:08:30.318Z,0.00
2022-09-15T02:09:30.340Z,0.00
2022-09-15T02:10:30.331Z,0.00
2022-09-15T02:11:30.376Z,0.00
2022-09-15T02:12:30.346Z,0.00
2022-09-15T02:13:30.316Z,0.00
2022-09-15T02:14:30.260Z,0.00
2022-09-15T02:15:30.294Z,0.00
2022-09-15T02:16:30.281Z,0.00
2022-09-15T02:17:30.304Z,0.00
2022-09-15T02:18:30.211Z,0.00
2022-09-15T02:19:30.272Z,0.00
2022-09-15T02:20:30.225Z,0.00
2022-09-15T02:21:30.190Z,0.00
2022-09-15T02:22:30.184Z,0.00
2022-09-15T02:23:30.241Z,0.00
2022-09-15T02:24:30.238Z,0.00
2022-09-15T02:25:30.212Z,0.00
2022-09-15T02:26:30.164Z,0.00
2022-09-15T02:27:30.189Z,0.00
2022-09-15T02:28:30.125Z,0.00
2022-09-15T02:29:30.120Z,0.00
2022-09-15T02:30:30.100Z,0.00
2022-09-15T02:31:30.184Z,0.00
2022-09-15T02:32:30.083Z,0.00
2022-09-15T02:33:30.110Z,0.00
2022-09-15T02:34:30.052Z,0.00
2022-09-15T02:35:30.051Z,0.00
2022-09-15T02:36:30.058Z,0.00
2022-09-15T02:37:30.044Z,0.00
2022-09-15T02:38:30.029Z,0.00
2022-09-15T02:39:30.038Z,0.00
2022-09-15T02:40:30.102Z,0.00
2022-09-15T02:41:29.989Z,0.00
2022-09-15T02:42:29.982Z,0.00
2022-09-15T02:43:30.058Z,0.00
2022-09-15T02:44:30.012Z,0.00
2022-09-15T02:45:30.019Z,0.00
2022-09-15T02:46:30.030Z,0.00
2022-09-15T02:47:29.975Z,0.00
2022-09-15T02:48:29.951Z,0.00
2022-09-15T02:49:29.993Z,0.00
2022-09-15T02:50:29.945Z,0.00
2022-09-15T02:51:29.902Z,0.00
2022-09-15T02:52:29.921Z,0.00
2022-09-15T02:53:29.975Z,0.00
2022-09-15T02:54:29.867Z,0.00
2022-09-15T02:55:29.866Z,0.00
2022-09-15T02:56:29.862Z,0.00
2022-09-15T02:57:29.883Z,0.00
2022-09-15T02:58:29.815Z,0.00
2022-09-15T02:59:29.830Z,0.00
2022-09-15T03:00:29.790Z,0.00
2022-09-15T03:01:30.166Z,0.00
2022-09-15T03:02:29.903Z,0.00
2022-09-15T03:03:29.802Z,0.00
2022-09-15T03:04:29.863Z,0.00
2022-09-15T03:05:29.753Z,0.00
2022-09-15T03:06:29.832Z,0.00
2022-09-15T03:07:29.826Z,0.00
2022-09-15T03:08:29.738Z,0.00
2022-09-15T03:09:29.728Z,0.00
2022-09-15T03:10:29.773Z,0.00
2022-09-15T03:11:29.766Z,0.00
2022-09-15T03:12:29.758Z,0.00
2022-09-15T03:13:29.771Z,0.00
2022-09-15T03:14:29.724Z,0.00
2022-09-15T03:15:29.662Z,0.00
2022-09-15T03:16:29.677Z,0.00
2022-09-15T03:17:30.276Z,0.00
2022-09-15T03:18:29.660Z,0.00
2022-09-15T03:19:29.643Z,0.00
2022-09-15T03:20:29.639Z,0.00
2022-09-15T03:21:29.629Z,0.00
2022-09-15T03:22:29.602Z,0.00
2022-09-15T03:23:29.571Z,0.00
2022-09-15T03:24:29.576Z,0.00
2022-09-15T03:25:29.560Z,0.00
2022-09-15T03:26:29.561Z,0.00
2022-09-15T03:27:29.586Z,0.00
2022-09-15T03:28:29.657Z,0.00
2022-09-15T03:29:29.539Z,0.00
2022-09-15T03:30:29.648Z,0.00
2022-09-15T03:31:29.594Z,0.00
2022-09-15T03:32:29.481Z,0.00
2022-09-15T03:33:29.468Z,0.00
2022-09-15T03:34:29.496Z,0.00
2022-09-15T03:35:29.522Z,0.00
2022-09-15T03:36:29.494Z,0.00
2022-09-15T03:37:29.448Z,0.00
2022-09-15T03:38:29.492Z,0.00
2022-09-15T03:39:29.542Z,0.00
2022-09-15T03:40:29.485Z,0.00
2022-09-15T03:41:29.388Z,0.00
2022-09-15T03:42:29.435Z,0.00
2022-09-15T03:43:29.418Z,0.00
2022-09-15T03:44:29.377Z,0.00
2022-09-15T03:45:29.820Z,0.00
2022-09-15T03:46:29.580Z,0.00
2022-09-15T03:47:29.354Z,0.00
2022-09-15T03:48:29.450Z,0.00
2022-09-15T03:49:29.452Z,0.00
2022-09-15T03:50:29.436Z,0.00
2022-09-15T03:51:29.322Z,0.00
2022-09-15T03:52:29.396Z,0.00
2022-09-15T03:53:29.379Z,0.00
2022-09-15T03:54:29.351Z,0.00
2022-09-15T03:55:29.397Z,0.00
2022-09-15T03:56:29.322Z,0.00
2022-09-15T03:57:29.242Z,0.00
2022-09-15T03:58:30.866Z,0.00
2022-09-15T03:59:29.229Z,0.00
2022-09-15T04:00:29.307Z,0.00
2022-09-15T04:01:29.318Z,0.00
2022-09-15T04:02:29.555Z,0.00
2022-09-15T04:03:29.306Z,0.00
2022-09-15T04:04:29.166Z,0.00
2022-09-15T04:05:29.303Z,0.00
2022-09-15T04:06:29.219Z,0.00
2022-09-15T04:07:29.274Z,0.00
2022-09-15T04:08:29.202Z,0.00
2022-09-15T04:09:29.179Z,0.00
2022-09-15T04:10:29.112Z,0.00
2022-09-15T04:11:29.154Z,0.00
2022-09-15T04:12:29.106Z,0.00
2022-09-15T04:13:29.049Z,0.00
2022-09-15T04:14:29.031Z,0.00
2022-09-15T04:15:29.070Z,0.00
2022-09-15T04:16:29.150Z,0.00
2022-09-15T04:17:29.068Z,0.00
2022-09-15T04:18:29.039Z,0.00
2022-09-15T04:19:28.998Z,0.00
2022-09-15T04:20:29.019Z,0.00
2022-09-15T04:21:28.979Z,0.00
2022-09-15T04:22:29.047Z,0.00
2022-09-15T04:23:28.958Z,0.00
2022-09-15T04:24:29.019Z,0.00
2022-09-15T04:25:28.926Z,0.00
2022-09-15T04:26:28.944Z,0.00
2022-09-15T04:27:28.888Z,0.00
2022-09-15T04:28:29.016Z,0.00
2022-09-15T04:29:28.911Z,0.00
2022-09-15T04:30:28.884Z,0.00
2022-09-15T04:31:28.912Z,0.00
2022-09-15T04:32:28.920Z,0.00
2022-09-15T04:33:28.888Z,0.00
2022-09-15T04:34:28.919Z,0.00
2022-09-15T04:35:28.826Z,0.00
2022-09-15T04:36:28.856Z,0.00
2022-09-15T04:37:28.781Z,1.00
2022-09-15T04:38:28.755Z,1.00
2022-09-15T04:39:28.981Z,1.00
2022-09-15T04:40:28.833Z,1.00
2022-09-15T04:41:28.924Z,0.00
2022-09-15T04:42:28.701Z,2.00
2022-09-15T04:43:28.714Z,2.00
2022-09-15T04:44:28.682Z,1.00
2022-09-15T04:45:28.693Z,0.00
2022-09-15T04:46:28.750Z,4.00
2022-09-15T04:47:28.749Z,4.00
2022-09-15T04:48:28.670Z,6.00
2022-09-15T04:49:28.626Z,2.00
2022-09-15T04:50:28.605Z,2.00
2022-09-15T04:51:28.631Z,5.00
2022-09-15T04:52:28.606Z,8.00
2022-09-15T04:53:28.545Z,6.00
2022-09-15T04:54:28.613Z,8.00
2022-09-15T04:55:28.583Z,12.00
2022-09-15T04:56:28.563Z,11.00
2022-09-15T04:57:28.584Z,11.00
2022-09-15T04:58:28.527Z,14.00
2022-09-15T04:59:28.517Z,19.00
2022-09-15T05:00:28.601Z,26.00
2022-09-15T05:01:28.567Z,30.00
2022-09-15T05:02:28.604Z,32.00
2022-09-15T05:03:28.469Z,34.00
2022-09-15T05:04:28.522Z,37.00
2022-09-15T05:05:28.456Z,42.00
2022-09-15T05:06:28.523Z,44.00
2022-09-15T05:07:28.430Z,47.00
2022-09-15T05:08:28.435Z,55.00
2022-09-15T05:09:28.432Z,59.00
2022-09-15T05:10:28.467Z,63.00
2022-09-15T05:11:28.576Z,66.00
2022-09-15T05:12:28.423Z,78.00
2022-09-15T05:13:28.393Z,80.00
2022-09-15T05:14:28.360Z,82.00
2022-09-15T05:15:28.376Z,94.00
2022-09-15T05:16:28.487Z,100.00
2022-09-15T05:17:28.388Z,97.00
2022-09-15T05:18:28.316Z,109.00
2022-09-15T05:19:28.311Z,125.00
2022-09-15T05:20:28.315Z,124.00
2022-09-15T05:21:28.349Z,126.00
2022-09-15T05:22:28.292Z,140.00
2022-09-15T05:23:28.259Z,158.00
2022-09-15T05:24:28.271Z,163.00
2022-09-15T05:25:28.236Z,167.00
2022-09-15T05:26:28.235Z,172.00
2022-09-15T05:27:28.248Z,173.00
2022-09-15T05:28:28.231Z,185.00
2022-09-15T05:29:28.289Z,182.00
2022-09-15T05:30:44.580Z,195.00
2022-09-15T05:31:28.193Z,227.00
2022-09-15T05:32:28.231Z,237.00
2022-09-15T05:33:28.152Z,225.00
2022-09-15T05:34:28.160Z,229.00
2022-09-15T05:35:28.174Z,242.00
2022-09-15T05:36:28.120Z,236.00
2022-09-15T05:37:28.124Z,216.00
2022-09-15T05:38:28.142Z,213.00
2022-09-15T05:39:28.117Z,267.00
2022-09-15T05:40:28.237Z,275.00
2022-09-15T05:41:28.067Z,235.00
2022-09-15T05:42:28.075Z,234.00
2022-09-15T05:43:28.104Z,241.00
2022-09-15T05:44:28.064Z,264.00
2022-09-15T05:45:28.082Z,296.00
2022-09-15T05:46:28.121Z,326.00
2022-09-15T05:47:28.029Z,353.00
2022-09-15T05:48:28.012Z,376.00
2022-09-15T05:49:27.991Z,384.00
2022-09-15T05:50:28.052Z,424.00
2022-09-15T05:51:27.965Z,447.00
2022-09-15T05:52:27.959Z,408.00
2022-09-15T05:53:28.058Z,399.00
2022-09-15T05:54:27.956Z,420.00
2022-09-15T05:55:27.933Z,419.00
2022-09-15T05:56:27.927Z,427.00
2022-09-15T05:57:27.931Z,424.00
2022-09-15T05:58:27.944Z,441.00
2022-09-15T05:59:27.876Z,448.00
2022-09-15T06:00:27.936Z,445.00
2022-09-15T06:02:45.837Z,396.00
2022-09-15T06:03:46.317Z,385.00
2022-09-15T06:04:46.214Z,418.00
2022-09-15T06:05:46.158Z,408.00
2022-09-15T06:06:46.170Z,408.00
2022-09-15T06:07:46.180Z,411.00
2022-09-15T06:08:48.145Z,408.00
2022-09-15T06:09:46.118Z,404.00
2022-09-15T06:10:46.078Z,415.00
2022-09-15T06:11:46.132Z,403.00
2022-09-15T06:12:46.068Z,399.00
2022-09-15T06:13:46.107Z,549.00
2022-09-15T06:14:46.061Z,560.00
2022-09-15T06:15:46.103Z,621.00
2022-09-15T06:16:46.052Z,642.00
2022-09-15T06:17:46.054Z,570.00
2022-09-15T06:18:46.055Z,600.00
2022-09-15T06:19:46.020Z,614.00
2022-09-15T06:20:46.004Z,589.00
2022-09-15T06:21:45.982Z,576.00
2022-09-15T06:22:46.012Z,589.00
2022-09-15T06:23:50.072Z,604.00
2022-09-15T06:24:46.016Z,635.00
2022-09-15T06:25:45.930Z,698.00
2022-09-15T06:26:45.957Z,783.00
2022-09-15T06:27:45.923Z,770.00
2022-09-15T06:28:45.935Z,828.00
2022-09-15T06:29:45.972Z,1000.00
2022-09-15T06:30:45.925Z,1184.00
2022-09-15T06:31:45.988Z,1233.00
2022-09-15T06:32:48.235Z,1186.00
2022-09-15T06:33:45.872Z,1130.00
2022-09-15T06:34:45.848Z,1222.00
2022-09-15T06:35:45.860Z,1435.00
2022-09-15T06:36:45.822Z,1405.00
2022-09-15T06:37:45.845Z,1488.00
2022-09-15T06:38:45.786Z,1346.00
2022-09-15T06:39:45.829Z,1204.00
2022-09-15T06:40:45.842Z,1154.00
2022-09-15T06:42:01.827Z,1187.00
2022-09-15T06:42:45.753Z,1152.00
2022-09-15T06:43:45.771Z,1118.00
2022-09-15T06:44:45.755Z,1186.00
2022-09-15T06:45:45.851Z,1193.00
2022-09-15T06:46:45.705Z,1138.00
2022-09-15T06:47:45.692Z,954.00
2022-09-15T06:48:48.277Z,760.00
2022-09-15T06:49:45.684Z,595.00
2022-09-15T06:50:45.706Z,468.00
2022-09-15T06:51:45.684Z,635.00
2022-09-15T06:52:45.660Z,1026.00
2022-09-15T06:53:45.683Z,1179.00
2022-09-15T06:54:45.619Z,1293.00
2022-09-15T06:55:45.640Z,1131.00
2022-09-15T06:56:45.587Z,1066.00
2022-09-15T06:57:45.661Z,953.00
2022-09-15T06:58:45.672Z,899.00
2022-09-15T06:59:45.596Z,1043.00
2022-09-15T07:00:45.672Z,1264.00
2022-09-15T07:01:45.730Z,1303.00
2022-09-15T07:02:45.725Z,1236.00
2022-09-15T07:03:45.645Z,1422.00
2022-09-15T07:04:45.539Z,1426.00
2022-09-15T07:05:45.501Z,1531.00
2022-09-15T07:06:45.560Z,1656.00
2022-09-15T07:07:45.473Z,1593.00
2022-09-15T07:08:45.563Z,1732.00
2022-09-15T07:09:48.938Z,1751.00
2022-09-15T07:10:45.545Z,1351.00
2022-09-15T07:11:45.455Z,1478.00
2022-09-15T07:12:45.432Z,1698.00
2022-09-15T07:13:45.428Z,1683.00
2022-09-15T07:14:45.440Z,1546.00
2022-09-15T07:15:45.430Z,1418.00
2022-09-15T07:16:45.482Z,1369.00
2022-09-15T07:17:45.420Z,1255.00
2022-09-15T07:18:45.358Z,1146.00
2022-09-15T07:19:45.351Z,1249.00
2022-09-15T07:20:45.381Z,1225.00
2022-09-15T07:21:45.337Z,1286.00
2022-09-15T07:22:45.347Z,1395.00
2022-09-15T07:23:45.479Z,1453.00
2022-09-15T07:24:45.325Z,1334.00
2022-09-15T07:25:45.291Z,1218.00
2022-09-15T07:26:45.298Z,1527.00
2022-09-15T07:27:45.276Z,1414.00
2022-09-15T07:28:45.267Z,1098.00
2022-09-15T07:29:45.294Z,1133.00
2022-09-15T07:30:45.269Z,1236.00
2022-09-15T07:31:45.268Z,1134.00
2022-09-15T07:32:45.257Z,1218.00
2022-09-15T07:33:45.355Z,1360.00
2022-09-15T07:34:45.202Z,1516.00
2022-09-15T07:35:45.187Z,1374.00
2022-09-15T07:36:45.198Z,1096.00
2022-09-15T07:37:45.194Z,1044.00
2022-09-15T07:38:45.175Z,1135.00
2022-09-15T07:39:45.206Z,1418.00
2022-09-15T07:40:45.144Z,1661.00
2022-09-15T07:41:45.167Z,1771.00
2022-09-15T07:42:45.113Z,1584.00
2022-09-15T07:43:45.106Z,1484.00
2022-09-15T07:44:45.090Z,1515.00
2022-09-15T07:45:45.182Z,1570.00
2022-09-15T07:46:45.105Z,1420.00
2022-09-15T07:47:45.053Z,1225.00
2022-09-15T07:48:45.120Z,1242.00
2022-09-15T07:49:45.032Z,1327.00
2022-09-15T07:50:45.024Z,1516.00
2022-09-15T07:51:45.005Z,1751.00
2022-09-15T07:52:45.038Z,2003.00
2022-09-15T07:53:44.984Z,2131.00
2022-09-15T07:54:44.980Z,2154.00
2022-09-15T07:55:44.990Z,2088.00
2022-09-15T07:56:44.966Z,1956.00
2022-09-15T07:57:44.937Z,1814.00
2022-09-15T07:58:44.953Z,1949.00
2022-09-15T07:59:44.946Z,2363.00
2022-09-15T08:00:44.995Z,2303.00
2022-09-15T08:01:44.928Z,2333.00
2022-09-15T08:02:44.902Z,2230.00
2022-09-15T08:03:44.964Z,2038.00
2022-09-15T08:04:44.878Z,1986.00
2022-09-15T08:05:45.978Z,1771.00
2022-09-15T08:06:44.843Z,1551.00
2022-09-15T08:07:44.853Z,1460.00
2022-09-15T08:08:44.837Z,1492.00
2022-09-15T08:09:44.818Z,1430.00
2022-09-15T08:10:44.843Z,1383.00
2022-09-15T08:11:44.809Z,1243.00
2022-09-15T08:12:44.794Z,1126.00
2022-09-15T08:13:44.777Z,1098.00
2022-09-15T08:14:44.812Z,1331.00
2022-09-15T08:15:44.821Z,1888.00
2022-09-15T08:16:44.742Z,1846.00
2022-09-15T08:17:44.736Z,1440.00
2022-09-15T08:18:45.035Z,911.00
2022-09-15T08:19:44.701Z,1207.00
2022-09-15T08:20:44.716Z,2102.00
2022-09-15T08:21:44.715Z,2599.00
2022-09-15T08:22:44.720Z,2575.00
2022-09-15T08:23:44.651Z,2455.00
2022-09-15T08:24:44.663Z,2536.00
2022-09-15T08:25:44.655Z,2649.00
2022-09-15T08:26:44.633Z,2121.00
2022-09-15T08:27:44.606Z,1891.00
2022-09-15T08:28:44.714Z,1982.00
2022-09-15T08:29:44.620Z,2285.00
2022-09-15T08:30:44.624Z,2329.00
2022-09-15T08:31:44.633Z,2112.00
2022-09-15T08:32:44.580Z,1748.00
2022-09-15T08:33:45.897Z,1578.00
2022-09-15T08:34:44.562Z,1539.00
2022-09-15T08:35:44.564Z,1492.00
2022-09-15T08:36:44.575Z,1354.00
2022-09-15T08:37:44.525Z,1312.00
2022-09-15T08:38:44.525Z,1567.00
2022-09-15T08:39:44.583Z,1917.00
2022-09-15T08:40:44.498Z,1771.00
2022-09-15T08:41:44.490Z,1533.00
2022-09-15T08:42:45.102Z,1687.00
2022-09-15T08:43:44.503Z,2089.00
2022-09-15T08:44:44.459Z,2174.00
2022-09-15T08:45:44.426Z,2280.00
2022-09-15T08:46:44.519Z,2612.00
2022-09-15T08:47:44.402Z,2989.00
2022-09-15T08:48:44.404Z,3207.00
2022-09-15T08:49:52.603Z,3202.00
2022-09-15T08:50:44.386Z,3135.00
2022-09-15T08:51:44.391Z,2982.00
2022-09-15T08:52:44.386Z,3025.00
2022-09-15T08:53:44.356Z,3026.00
2022-09-15T08:54:44.334Z,3128.00
2022-09-15T08:55:44.312Z,3309.00
2022-09-15T08:56:44.339Z,3167.00
2022-09-15T08:57:44.314Z,3363.00
2022-09-15T08:58:44.314Z,3068.00
2022-09-15T08:59:44.288Z,2855.00
2022-09-15T09:00:44.276Z,3035.00
2022-09-15T09:01:44.424Z,3060.00
2022-09-15T09:02:44.356Z,3376.00
2022-09-15T09:03:44.235Z,3551.00
2022-09-15T09:04:44.236Z,3500.00
2022-09-15T09:05:44.276Z,3373.00
2022-09-15T09:06:44.228Z,3178.00
2022-09-15T09:07:44.224Z,2980.00
2022-09-15T09:08:44.326Z,2839.00
2022-09-15T09:09:44.194Z,2815.00
2022-09-15T09:10:44.199Z,2814.00
2022-09-15T09:11:44.172Z,2829.00
2022-09-15T09:12:44.151Z,2980.00
2022-09-15T09:13:44.133Z,3045.00
2022-09-15T09:14:44.132Z,3117.00
2022-09-15T09:15:44.160Z,3415.00
2022-09-15T09:16:44.117Z,3705.00
2022-09-15T09:17:44.097Z,3775.00
2022-09-15T09:18:44.110Z,3839.00
2022-09-15T09:19:44.076Z,3323.00
2022-09-15T09:20:44.090Z,3025.00
2022-09-15T09:21:44.037Z,2751.00
2022-09-15T09:22:44.046Z,2537.00
2022-09-15T09:23:44.037Z,2419.00
2022-09-15T09:24:44.023Z,2440.00
2022-09-15T09:25:44.019Z,2446.00
2022-09-15T09:26:44.004Z,2301.00
2022-09-15T09:27:44.008Z,1997.00
2022-09-15T09:28:43.989Z,1760.00
2022-09-15T09:29:43.964Z,1739.00
2022-09-15T09:30:43.987Z,1776.00
2022-09-15T09:31:43.956Z,1775.00
2022-09-15T09:32:43.946Z,1598.00
2022-09-15T09:33:47.611Z,1410.00
2022-09-15T09:34:43.922Z,1303.00
2022-09-15T09:35:43.915Z,1019.00
2022-09-15T09:36:43.898Z,763.00
2022-09-15T09:37:43.877Z,627.00
2022-09-15T09:38:43.906Z,598.00
2022-09-15T09:39:43.862Z,636.00
2022-09-15T09:40:43.857Z,686.00
2022-09-15T09:41:43.843Z,804.00
2022-09-15T09:42:43.842Z,985.00
2022-09-15T09:43:43.834Z,1156.00
2022-09-15T09:44:43.828Z,1274.00
2022-09-15T09:45:43.849Z,1461.00
2022-09-15T09:46:43.822Z,1536.00
2022-09-15T09:47:43.792Z,1645.00
2022-09-15T09:48:43.813Z,1677.00
2022-09-15T09:49:43.777Z,1669.00
2022-09-15T09:50:43.751Z,1571.00
2022-09-15T09:51:43.738Z,1444.00
2022-09-15T09:52:43.734Z,1453.00
2022-09-15T09:53:43.773Z,1420.00
2022-09-15T09:54:43.727Z,1406.00
2022-09-15T09:55:43.706Z,1481.00
2022-09-15T09:56:43.690Z,1593.00
2022-09-15T09:57:43.683Z,1624.00
2022-09-15T09:58:43.681Z,1608.00
2022-09-15T09:59:43.695Z,1506.00
2022-09-15T10:00:43.634Z,1471.00
2022-09-15T10:01:43.684Z,1482.00
2022-09-15T10:02:43.634Z,1531.00
2022-09-15T10:03:43.603Z,1620.00
2022-09-15T10:04:43.741Z,1658.00
2022-09-15T10:05:43.586Z,1686.00
2022-09-15T10:06:43.579Z,1680.00
2022-09-15T10:07:43.582Z,1657.00
2022-09-15T10:08:43.548Z,1694.00
2022-09-15T10:09:43.553Z,1693.00
2022-09-15T10:10:43.538Z,1943.00
2022-09-15T10:11:43.533Z,2088.00
2022-09-15T10:12:43.511Z,2052.00
2022-09-15T10:13:43.514Z,2083.00
2022-09-15T10:14:43.515Z,2278.00
2022-09-15T10:15:43.493Z,2208.00
2022-09-15T10:16:43.511Z,2042.00
2022-09-15T10:17:43.483Z,2090.00
2022-09-15T10:18:43.495Z,2150.00
2022-09-15T10:19:43.458Z,2126.00
2022-09-15T10:20:43.445Z,2156.00
2022-09-15T10:21:43.419Z,2372.00
2022-09-15T10:22:43.423Z,2325.00
2022-09-15T10:23:43.400Z,2418.00
2022-09-15T10:24:43.424Z,2699.00
2022-09-15T10:25:59.238Z,2982.00
2022-09-15T10:26:43.375Z,2730.00
2022-09-15T10:27:43.350Z,2617.00
2022-09-15T10:28:43.347Z,2899.00
2022-09-15T10:29:43.335Z,3072.00
2022-09-15T10:30:43.329Z,3111.00
2022-09-15T10:31:43.360Z,3237.00
2022-09-15T10:32:43.298Z,3135.00
2022-09-15T10:33:43.287Z,2997.00
2022-09-15T10:34:43.327Z,3062.00
2022-09-15T10:35:43.318Z,3060.00
2022-09-15T10:36:43.264Z,3056.00
2022-09-15T10:37:43.250Z,3121.00
2022-09-15T10:38:43.243Z,3100.00
2022-09-15T10:39:43.231Z,3336.00
2022-09-15T10:40:43.266Z,3146.00
2022-09-15T10:41:43.217Z,2552.00
2022-09-15T10:42:43.201Z,4263.00
2022-09-15T10:43:43.182Z,3103.00
2022-09-15T10:44:43.210Z,3554.00
2022-09-15T10:45:43.192Z,3300.00
2022-09-15T10:46:43.176Z,3406.00
2022-09-15T10:47:43.167Z,2999.00
2022-09-15T10:48:43.161Z,3251.00
2022-09-15T10:49:43.135Z,3118.00
2022-09-15T10:50:43.121Z,2703.00
2022-09-15T10:51:43.104Z,2948.00
2022-09-15T10:52:43.102Z,2990.00
2022-09-15T10:53:43.088Z,3001.00
2022-09-15T10:54:43.084Z,2922.00
2022-09-15T10:55:53.041Z,2862.00
2022-09-15T10:56:43.071Z,2580.00
2022-09-15T10:57:43.059Z,2843.00
2022-09-15T10:58:45.631Z,1538.00
2022-09-15T10:59:43.030Z,1762.00
2022-09-15T11:00:43.029Z,3453.00
2022-09-15T11:01:43.089Z,884.00
2022-09-15T11:02:43.042Z,2672.00
2022-09-15T11:03:43.048Z,2218.00
2022-09-15T11:04:43.019Z,2124.00
2022-09-15T11:05:42.954Z,2098.00
2022-09-15T11:06:42.981Z,3151.00
2022-09-15T11:07:42.982Z,1928.00
2022-09-15T11:08:43.011Z,1187.00
2022-09-15T11:09:42.929Z,2127.00
2022-09-15T11:10:42.932Z,4709.00
2022-09-15T11:11:42.926Z,1918.00
2022-09-15T11:12:42.889Z,2391.00
2022-09-15T11:13:42.895Z,952.00
2022-09-15T11:14:42.866Z,2932.00
2022-09-15T11:15:42.877Z,1223.00
2022-09-15T11:16:42.906Z,5029.00
2022-09-15T11:17:42.878Z,2985.00
2022-09-15T11:18:42.842Z,3329.00
2022-09-15T11:19:43.049Z,2471.00
2022-09-15T11:20:42.815Z,1677.00
2022-09-15T11:21:42.815Z,3345.00
2022-09-15T11:22:47.289Z,1557.00
2022-09-15T11:23:42.782Z,1404.00
2022-09-15T11:24:42.797Z,2675.00
2022-09-15T11:25:42.775Z,5094.00
2022-09-15T11:26:42.771Z,1599.00
2022-09-15T11:27:43.249Z,5797.00
2022-09-15T11:28:42.721Z,2653.00
2022-09-15T11:29:42.735Z,4565.00
2022-09-15T11:30:47.547Z,3414.00
2022-09-15T11:31:42.986Z,2991.00
2022-09-15T11:32:42.693Z,1584.00
2022-09-15T11:33:42.769Z,2356.00
2022-09-15T11:34:42.685Z,4809.00
2022-09-15T11:35:42.654Z,3195.00
2022-09-15T11:36:42.648Z,2788.00
2022-09-15T11:37:42.636Z,1836.00
2022-09-15T11:38:42.623Z,4053.00
2022-09-15T11:39:42.620Z,3078.00
2022-09-15T11:40:42.618Z,2959.00
2022-09-15T11:41:42.600Z,3051.00
2022-09-15T11:42:42.593Z,2635.00
2022-09-15T11:43:42.565Z,4249.00
2022-09-15T11:44:42.566Z,3158.00
2022-09-15T11:45:42.532Z,2784.00
2022-09-15T11:46:42.596Z,2991.00
2022-09-15T11:47:42.549Z,3454.00
2022-09-15T11:48:42.606Z,1795.00
2022-09-15T11:49:42.503Z,2727.00
2022-09-15T11:50:42.475Z,1364.00
2022-09-15T11:51:42.476Z,3236.00
2022-09-15T11:52:42.485Z,3154.00
2022-09-15T11:53:42.455Z,2614.00
2022-09-15T11:54:42.445Z,2703.00
2022-09-15T11:55:42.432Z,2538.00
2022-09-15T11:56:42.429Z,2605.00
2022-09-15T11:57:42.515Z,2320.00
2022-09-15T11:58:42.401Z,3390.00
2022-09-15T11:59:42.401Z,1589.00
2022-09-15T12:00:42.397Z,5319.00
2022-09-15T12:01:42.430Z,3089.00
2022-09-15T12:02:42.460Z,3060.00
2022-09-15T12:03:42.474Z,2636.00
2022-09-15T12:04:42.329Z,2050.00
2022-09-15T12:05:42.308Z,3471.00
2022-09-15T12:06:45.765Z,1359.00
2022-09-15T12:07:42.296Z,4468.00
2022-09-15T12:08:42.302Z,3377.00
2022-09-15T12:09:42.300Z,3236.00
2022-09-15T12:10:42.252Z,3646.00
2022-09-15T12:11:42.263Z,3422.00
2022-09-15T12:12:42.246Z,3418.00
2022-09-15T12:13:42.247Z,3101.00
2022-09-15T12:14:42.224Z,1262.00
2022-09-15T12:15:42.235Z,2473.00
2022-09-15T12:16:42.220Z,5514.00
2022-09-15T12:17:42.183Z,4463.00
2022-09-15T12:18:44.947Z,3693.00
2022-09-15T12:19:42.182Z,3849.00
2022-09-15T12:20:42.140Z,3872.00
2022-09-15T12:21:42.158Z,3573.00
2022-09-15T12:22:42.137Z,2106.00
2022-09-15T12:23:42.173Z,1445.00
2022-09-15T12:24:42.104Z,1629.00
2022-09-15T12:25:42.165Z,1998.00
2022-09-15T12:26:42.113Z,1646.00
2022-09-15T12:27:42.076Z,2401.00
2022-09-15T12:28:42.143Z,2695.00
2022-09-15T12:29:42.656Z,2489.00
2022-09-15T12:30:42.043Z,2437.00
2022-09-15T12:31:42.041Z,1808.00
2022-09-15T12:32:42.008Z,1841.00
2022-09-15T12:33:42.013Z,2564.00
2022-09-15T12:34:42.132Z,2614.00
2022-09-15T12:35:41.985Z,2924.00
2022-09-15T12:36:41.971Z,2897.00
2022-09-15T12:37:41.950Z,3011.00